createdAt,value
2022-11-23T00:02:27.938Z,1.52
2022-11-23T00:04:58.726Z,1.53
2022-11-23T00:07:29.363Z,1.54
2022-11-23T00:10:00.092Z,1.57
2022-11-23T00:12:30.691Z,1.58
2022-11-23T00:15:01.354Z,1.58
2022-11-23T00:17:32.097Z,1.56
2022-11-23T00:20:02.735Z,1.54
2022-11-23T00:22:33.201Z,1.55
2022-11-23T00:25:04.186Z,1.54
2022-11-23T00:27:34.837Z,1.54
2022-11-23T00:30:06.210Z,1.56
2022-11-23T00:32:37.022Z,1.56
2022-11-23T00:35:11.504Z,1.54
2022-11-23T00:37:42.186Z,1.55
2022-11-23T00:40:15.779Z,1.52
2022-11-23T00:42:46.421Z,1.48
2022-11-23T00:45:17.361Z,1.45
2022-11-23T00:47:47.982Z,1.40
2022-11-23T00:50:19.651Z,1.42
2022-11-23T00:52:50.231Z,1.45
2022-11-23T00:55:22.048Z,1.46
2022-11-23T00:57:52.639Z,1.48
2022-11-23T01:00:23.430Z,1.50
2022-11-23T01:02:54.053Z,1.49
2022-11-23T01:05:25.353Z,1.47
2022-11-23T01:07:56.038Z,1.42
2022-11-23T01:10:28.920Z,1.48
2022-11-23T01:12:59.909Z,1.48
2022-11-23T01:15:30.598Z,1.42
2022-11-23T01:18:01.203Z,1.40
2022-11-23T01:20:31.866Z,1.37
2022-11-23T01:23:02.434Z,1.38
2022-11-23T01:25:33.191Z,1.35
2022-11-23T01:28:03.875Z,1.28
2022-11-23T01:30:36.452Z,1.28
2022-11-23T01:33:07.548Z,1.26
2022-11-23T01:35:38.205Z,1.24
2022-11-23T01:38:11.485Z,1.23
2022-11-23T01:40:45.376Z,1.23
2022-11-23T01:43:19.207Z,1.18
2022-11-23T01:45:59.730Z,1.12
2022-11-23T01:48:35.094Z,1.07
2022-11-23T01:51:10.585Z,1.05
2022-11-23T01:53:42.550Z,1.01
2022-11-23T01:56:16.407Z,0.97
2022-11-23T01:58:52.619Z,1.00
2022-11-23T02:01:24.184Z,1.08
2022-11-23T02:03:57.264Z,1.17
2022-11-23T02:06:27.894Z,1.18
2022-11-23T02:08:59.076Z,1.16
2022-11-23T02:11:29.735Z,1.15
2022-11-23T02:14:00.575Z,1.19
2022-11-23T02:16:34.528Z,1.23
2022-11-23T02:19:08.274Z,1.27
2022-11-23T02:21:39.311Z,1.30
2022-11-23T02:24:16.426Z,1.27
2022-11-23T02:26:47.611Z,1.22
2022-11-23T02:29:23.886Z,1.21
2022-11-23T02:31:55.484Z,1.22
2022-11-23T02:34:28.412Z,1.18
2022-11-23T02:37:00.151Z,1.16
2022-11-23T02:39:35.767Z,1.17
2022-11-23T02:42:07.784Z,1.17
2022-11-23T02:44:45.301Z,1.14
2022-11-23T02:47:16.987Z,1.14
2022-11-23T02:49:50.815Z,1.18
2022-11-23T02:52:22.267Z,1.24
2022-11-23T02:54:53.028Z,1.27
2022-11-23T02:57:23.778Z,1.26
2022-11-23T02:59:54.397Z,1.29
2022-11-23T03:02:25.009Z,1.34
2022-11-23T03:04:57.815Z,1.37
2022-11-23T03:07:28.515Z,1.31
2022-11-23T03:10:00.927Z,1.31
2022-11-23T03:12:31.868Z,1.28
2022-11-23T03:15:03.219Z,1.23
2022-11-23T03:17:35.373Z,1.25
2022-11-23T03:20:07.782Z,1.30
2022-11-23T03:22:40.070Z,1.32
2022-11-23T03:25:11.852Z,1.32
2022-11-23T03:27:43.047Z,1.31
2022-11-23T03:30:14.563Z,1.27
2022-11-23T03:32:45.433Z,1.20
2022-11-23T03:35:16.169Z,1.15
2022-11-23T03:38:03.384Z,1.14
2022-11-23T03:40:34.000Z,1.19
2022-11-23T03:43:22.251Z,1.23
2022-11-23T03:45:53.093Z,1.27
2022-11-23T03:48:23.933Z,1.29
2022-11-23T03:50:54.769Z,1.31
2022-11-23T03:53:25.392Z,1.28
2022-11-23T03:55:57.659Z,1.23
2022-11-23T03:58:29.114Z,1.25
2022-11-23T04:00:59.895Z,1.22
2022-11-23T04:03:31.044Z,1.16
2022-11-23T04:06:15.559Z,1.14
2022-11-23T04:08:48.863Z,1.14
2022-11-23T04:11:24.911Z,1.16
2022-11-23T04:13:55.526Z,1.17
2022-11-23T04:16:26.487Z,1.13
2022-11-23T04:18:57.241Z,1.06
2022-11-23T04:21:27.943Z,1.00
2022-11-23T04:23:58.799Z,0.97
2022-11-23T04:26:29.739Z,0.96
2022-11-23T04:29:00.464Z,0.89
2022-11-23T04:31:31.213Z,0.83
2022-11-23T04:34:11.674Z,0.82
2022-11-23T04:36:42.564Z,0.90
2022-11-23T04:39:14.353Z,0.97
2022-11-23T04:42:05.641Z,1.02
2022-11-23T04:44:36.617Z,1.09
2022-11-23T04:47:09.182Z,1.12
2022-11-23T04:49:41.132Z,1.08
2022-11-23T04:52:12.508Z,1.03
2022-11-23T04:54:48.165Z,1.06
2022-11-23T04:57:19.305Z,1.05
2022-11-23T04:59:50.317Z,1.05
2022-11-23T05:02:21.063Z,1.06
2022-11-23T05:04:55.301Z,1.05
2022-11-23T05:07:28.799Z,1.08
2022-11-23T05:10:01.991Z,1.11
2022-11-23T05:12:32.830Z,1.14
2022-11-23T05:15:05.353Z,1.18
2022-11-23T05:17:39.347Z,1.23
2022-11-23T05:20:14.903Z,1.22
2022-11-23T05:22:49.284Z,1.19
2022-11-23T05:25:23.398Z,1.09
2022-11-23T05:28:11.168Z,1.05
2022-11-23T05:30:50.951Z,1.05
2022-11-23T05:33:21.803Z,1.10
2022-11-23T05:35:52.424Z,1.17
2022-11-23T05:38:28.701Z,1.18
2022-11-23T05:41:00.257Z,1.13
2022-11-23T05:43:31.571Z,1.21
2022-11-23T05:46:03.221Z,1.27
2022-11-23T05:48:34.305Z,1.30
2022-11-23T05:51:12.040Z,1.37
2022-11-23T05:53:48.469Z,1.38
2022-11-23T05:56:42.232Z,1.36
2022-11-23T05:59:21.793Z,1.38
2022-11-23T06:01:55.994Z,1.38
2022-11-23T06:04:30.709Z,1.42
2022-11-23T06:07:02.162Z,1.43
2022-11-23T06:09:39.857Z,1.45
2022-11-23T06:12:12.538Z,1.41
2022-11-23T06:14:43.691Z,1.41
2022-11-23T06:17:14.831Z,1.43
2022-11-23T06:19:52.017Z,1.44
2022-11-23T06:22:22.622Z,1.43
2022-11-23T06:25:05.258Z,1.44
2022-11-23T06:27:56.677Z,1.40
2022-11-23T06:30:31.432Z,1.44
2022-11-23T06:33:07.111Z,1.40
2022-11-23T06:35:43.139Z,1.42
2022-11-23T06:38:14.037Z,1.49
2022-11-23T06:40:44.778Z,1.49
2022-11-23T06:43:15.408Z,1.41
2022-11-23T06:45:47.083Z,1.37
2022-11-23T06:48:18.430Z,1.42
2022-11-23T06:50:50.891Z,1.48
2022-11-23T06:53:22.757Z,1.48
2022-11-23T06:56:01.434Z,1.47
2022-11-23T06:58:33.183Z,1.42
2022-11-23T07:01:07.357Z,1.42
2022-11-23T07:03:43.035Z,1.42
2022-11-23T07:06:23.763Z,1.33
2022-11-23T07:08:58.143Z,1.25
2022-11-23T07:11:41.503Z,1.17
2022-11-23T07:14:12.556Z,1.17
2022-11-23T07:16:44.608Z,1.16
2022-11-23T07:19:15.246Z,1.24
2022-11-23T07:21:47.378Z,1.28
2022-11-23T07:24:18.020Z,1.34
2022-11-23T07:26:48.787Z,1.43
2022-11-23T07:29:19.522Z,1.40
2022-11-23T07:31:50.156Z,1.38
2022-11-23T07:34:20.899Z,1.37
2022-11-23T07:36:51.488Z,1.42
2022-11-23T07:39:32.263Z,1.39
2022-11-23T07:42:31.489Z,1.35
2022-11-23T07:45:03.339Z,1.26
2022-11-23T07:47:34.052Z,1.23
2022-11-23T07:50:05.222Z,1.24
2022-11-23T07:52:36.829Z,1.26
2022-11-23T07:55:09.125Z,1.22
2022-11-23T07:57:39.774Z,1.20
2022-11-23T08:00:13.705Z,1.21
2022-11-23T08:03:04.164Z,1.15
2022-11-23T08:05:36.720Z,1.12
2022-11-23T08:08:07.851Z,1.11
2022-11-23T08:10:44.188Z,1.20
2022-11-23T08:13:16.936Z,1.29
2022-11-23T08:15:53.423Z,1.29
2022-11-23T08:18:25.587Z,1.25
2022-11-23T08:20:59.903Z,1.20
2022-11-23T08:23:31.103Z,1.23
2022-11-23T08:26:06.558Z,1.25
2022-11-23T08:28:40.198Z,1.16
2022-11-23T08:31:12.320Z,1.09
2022-11-23T08:33:43.704Z,1.04
2022-11-23T08:36:14.660Z,1.04
2022-11-23T08:38:45.394Z,1.07
2022-11-23T08:41:18.289Z,1.20
2022-11-23T08:43:49.061Z,1.32
2022-11-23T08:46:20.638Z,1.37
2022-11-23T08:48:51.307Z,1.27
2022-11-23T08:51:23.275Z,1.19
2022-11-23T08:53:53.993Z,1.20
2022-11-23T08:56:24.632Z,1.12
2022-11-23T08:58:55.280Z,1.08
2022-11-23T09:01:26.272Z,1.10
2022-11-23T09:03:56.954Z,1.14
2022-11-23T09:06:29.294Z,1.14
2022-11-23T09:09:00.074Z,1.17
2022-11-23T09:11:30.677Z,1.13
2022-11-23T09:14:01.434Z,1.12
2022-11-23T09:16:34.022Z,1.16
2022-11-23T09:19:06.490Z,1.13
2022-11-23T09:21:39.291Z,1.07
2022-11-23T09:24:11.035Z,0.97
2022-11-23T09:26:42.327Z,0.98
2022-11-23T09:29:13.478Z,1.01
2022-11-23T09:31:44.115Z,1.07
2022-11-23T09:34:15.123Z,1.10
2022-11-23T09:36:45.693Z,1.10
2022-11-23T09:39:16.725Z,1.05
2022-11-23T09:42:06.983Z,1.01
2022-11-23T09:44:52.547Z,1.08
2022-11-23T09:47:38.550Z,1.11
2022-11-23T09:50:18.836Z,1.11
2022-11-23T09:52:51.616Z,1.17
2022-11-23T09:55:32.934Z,1.26
2022-11-23T09:58:06.879Z,1.32
2022-11-23T10:00:44.640Z,1.42
2022-11-23T10:03:18.205Z,1.47
2022-11-23T10:06:02.797Z,1.36
2022-11-23T10:08:44.271Z,1.34
2022-11-23T10:11:46.025Z,1.42
2022-11-23T10:14:36.129Z,1.39
2022-11-23T10:17:17.207Z,1.29
2022-11-23T10:20:02.845Z,1.25
2022-11-23T10:22:42.381Z,1.19
2022-11-23T10:25:18.074Z,1.12
2022-11-23T10:27:51.116Z,1.15
2022-11-23T10:30:22.578Z,1.15
2022-11-23T10:33:00.072Z,1.17
2022-11-23T10:35:33.911Z,1.13
2022-11-23T10:38:19.060Z,1.19
2022-11-23T10:41:01.291Z,1.22
2022-11-23T10:43:38.110Z,1.36
2022-11-23T10:46:32.785Z,1.48
2022-11-23T10:49:17.066Z,1.50
2022-11-23T10:51:56.234Z,1.50
2022-11-23T10:54:32.151Z,1.56
2022-11-23T10:57:21.454Z,1.52
2022-11-23T11:00:00.769Z,1.43
2022-11-23T11:02:39.341Z,1.48
2022-11-23T11:05:53.071Z,1.56
2022-11-23T11:08:19.279Z,1.50
2022-11-23T11:10:52.079Z,1.51
2022-11-23T11:13:29.809Z,1.54
2022-11-23T11:16:03.649Z,1.51
2022-11-23T11:18:36.384Z,1.48
2022-11-23T11:21:20.181Z,1.49
2022-11-23T11:23:56.318Z,1.45
2022-11-23T11:26:30.358Z,1.47
2022-11-23T11:29:04.014Z,1.42
2022-11-23T11:31:45.660Z,1.40
2022-11-23T11:34:24.931Z,1.40
2022-11-23T11:37:01.816Z,1.46
2022-11-23T11:39:38.946Z,1.51
2022-11-23T11:42:15.599Z,1.48
2022-11-23T11:44:49.302Z,1.50
2022-11-23T11:47:30.315Z,1.54
2022-11-23T11:50:03.814Z,1.53
2022-11-23T11:52:40.239Z,1.43
2022-11-23T11:55:17.779Z,1.40
2022-11-23T11:57:53.071Z,1.29
2022-11-23T12:00:24.286Z,1.37
2022-11-23T12:03:04.897Z,1.38
2022-11-23T12:05:41.246Z,1.33
2022-11-23T12:08:17.411Z,1.27
2022-11-23T12:10:54.287Z,1.32
2022-11-23T12:13:29.839Z,1.29
2022-11-23T12:16:08.279Z,1.26
2022-11-23T12:18:52.691Z,1.23
2022-11-23T12:21:48.948Z,1.22
2022-11-23T12:24:31.615Z,1.19
2022-11-23T12:27:14.432Z,1.26
2022-11-23T12:29:59.798Z,1.15
2022-11-23T12:32:48.646Z,1.05
2022-11-23T12:35:52.319Z,1.06
2022-11-23T12:38:31.923Z,1.08
2022-11-23T12:41:24.035Z,1.01
2022-11-23T12:44:18.739Z,0.95
2022-11-23T12:46:56.885Z,0.84
2022-11-23T12:49:39.137Z,0.79
2022-11-23T12:52:26.394Z,0.81
2022-11-23T12:55:08.829Z,0.87
2022-11-23T12:57:45.371Z,0.93
2022-11-23T13:00:19.487Z,0.95
2022-11-23T13:03:20.097Z,0.88
2022-11-23T13:06:29.310Z,0.91
2022-11-23T13:09:17.344Z,1.03
2022-11-23T13:12:12.616Z,1.13
2022-11-23T13:14:56.575Z,1.15
2022-11-23T13:17:38.887Z,1.11
2022-11-23T13:20:55.265Z,1.15
2022-11-23T13:23:25.935Z,1.23
2022-11-23T13:26:18.343Z,1.18
2022-11-23T13:28:49.913Z,1.14
2022-11-23T13:31:31.119Z,1.13
2022-11-23T13:34:03.687Z,1.02
2022-11-23T13:40:06.806Z,0.99
2022-11-23T13:42:37.747Z,0.95
2022-11-23T13:45:29.641Z,0.99
2022-11-23T13:51:13.275Z,0.93
2022-11-23T13:53:52.024Z,0.90
2022-11-23T13:56:31.713Z,0.84
2022-11-23T13:59:26.805Z,0.83
2022-11-23T14:02:29.076Z,0.87
2022-11-23T14:05:34.740Z,0.91
2022-11-23T14:08:06.853Z,0.90
2022-11-23T14:10:38.055Z,0.86
2022-11-23T14:13:16.980Z,0.85
2022-11-23T14:15:55.171Z,0.91
2022-11-23T14:18:44.287Z,0.92
2022-11-23T14:21:18.061Z,0.90
2022-11-23T14:24:19.151Z,0.90
2022-11-23T14:27:30.793Z,0.84
2022-11-23T14:30:06.548Z,0.82
2022-11-23T14:32:52.581Z,0.89
2022-11-23T14:35:32.514Z,0.99
2022-11-23T14:38:33.979Z,0.97
2022-11-23T14:41:09.773Z,0.89
2022-11-23T14:43:43.880Z,0.84
2022-11-23T14:46:20.158Z,0.82
2022-11-23T14:48:52.316Z,0.76
2022-11-23T14:51:27.192Z,0.78
2022-11-23T14:54:01.296Z,0.80
2022-11-23T14:56:37.258Z,0.75
2022-11-23T14:59:11.342Z,0.77
2022-11-23T15:01:48.024Z,0.76
2022-11-23T15:04:25.906Z,0.75
2022-11-23T15:07:02.922Z,0.72
2022-11-23T15:09:46.925Z,0.70
2022-11-23T15:12:28.454Z,0.71
2022-11-23T15:14:59.793Z,0.70
2022-11-23T15:17:30.406Z,0.69
2022-11-23T15:20:02.735Z,0.70
2022-11-23T15:22:37.147Z,0.74
2022-11-23T15:25:18.531Z,0.77
2022-11-23T15:27:50.330Z,0.76
2022-11-23T15:30:23.945Z,0.72
2022-11-23T15:33:05.351Z,0.68
2022-11-23T15:35:38.228Z,0.63
2022-11-23T15:38:17.745Z,0.58
2022-11-23T15:40:52.284Z,0.55
2022-11-23T15:43:23.106Z,0.54
2022-11-23T15:46:06.732Z,0.44
2022-11-23T15:48:38.215Z,0.36
2022-11-23T15:51:23.781Z,0.33
2022-11-23T15:53:55.172Z,0.33
2022-11-23T15:56:29.599Z,0.36
2022-11-23T15:59:02.285Z,0.37
2022-11-23T16:01:33.201Z,0.41
2022-11-23T16:04:04.952Z,0.44
2022-11-23T16:06:40.631Z,0.43
2022-11-23T16:09:57.126Z,0.42
2022-11-23T16:12:30.182Z,0.49
2022-11-23T16:15:22.685Z,0.51
2022-11-23T16:17:53.420Z,0.54
2022-11-23T16:20:26.921Z,0.47
2022-11-23T16:23:00.076Z,0.42
2022-11-23T16:25:34.090Z,0.49
2022-11-23T16:28:07.264Z,0.56
2022-11-23T16:30:41.650Z,0.57
2022-11-23T16:33:16.906Z,0.59
2022-11-23T16:35:48.171Z,0.58
2022-11-23T16:38:19.164Z,0.49
2022-11-23T16:40:50.574Z,0.43
2022-11-23T16:43:21.451Z,0.44
2022-11-23T16:45:55.259Z,0.51
2022-11-23T16:48:43.050Z,0.51
2022-11-23T16:51:15.155Z,0.49
2022-11-23T16:54:12.552Z,0.46
2022-11-23T16:56:39.455Z,0.42
2022-11-23T16:59:15.891Z,0.42
2022-11-23T17:01:51.297Z,0.37
2022-11-23T17:04:25.138Z,0.31
2022-11-23T17:06:56.014Z,0.30
2022-11-23T17:09:26.599Z,0.38
2022-11-23T17:11:57.273Z,0.37
2022-11-23T17:14:29.677Z,0.39
2022-11-23T17:17:02.572Z,0.36
2022-11-23T17:19:33.390Z,0.36
2022-11-23T17:22:04.137Z,0.35
2022-11-23T17:24:35.044Z,0.43
2022-11-23T17:27:06.067Z,0.47
2022-11-23T17:29:41.419Z,0.45
2022-11-23T17:32:15.042Z,0.38
2022-11-23T17:34:45.670Z,0.35
2022-11-23T17:37:20.974Z,0.33
2022-11-23T17:39:52.261Z,0.31
2022-11-23T17:42:23.100Z,0.33
2022-11-23T17:44:54.257Z,0.38
2022-11-23T17:47:28.823Z,0.40
2022-11-23T17:49:59.767Z,0.40
2022-11-23T17:52:30.394Z,0.39
2022-11-23T17:55:01.107Z,0.32
2022-11-23T17:57:31.705Z,0.27
2022-11-23T18:00:03.851Z,0.29
2022-11-23T18:02:42.908Z,0.26
2022-11-23T18:05:19.709Z,0.26
2022-11-23T18:07:52.204Z,0.25
2022-11-23T18:10:23.612Z,0.24
2022-11-23T18:12:54.198Z,0.25
2022-11-23T18:15:24.885Z,0.21
2022-11-23T18:17:58.907Z,0.20
2022-11-23T18:20:32.330Z,0.17
2022-11-23T18:23:02.978Z,0.06
2022-11-23T18:25:34.175Z,-0.04
2022-11-23T18:28:05.061Z,-0.07
2022-11-23T18:30:35.698Z,-0.07
2022-11-23T18:33:06.477Z,-0.02
2022-11-23T18:35:37.113Z,0.05
2022-11-23T18:38:08.041Z,0.11
2022-11-23T18:40:38.670Z,0.09
2022-11-23T18:43:09.356Z,0.07
2022-11-23T18:45:40.010Z,0.03
2022-11-23T18:48:10.715Z,0.09
2022-11-23T18:50:42.046Z,0.15
2022-11-23T18:53:12.780Z,0.24
2022-11-23T18:55:43.439Z,0.29
2022-11-23T18:58:14.391Z,0.23
2022-11-23T19:00:45.399Z,0.20
2022-11-23T19:03:16.075Z,0.17
2022-11-23T19:05:46.870Z,0.12
2022-11-23T19:08:17.509Z,0.09
2022-11-23T19:10:48.089Z,0.10
2022-11-23T19:13:18.775Z,0.09
2022-11-23T19:15:49.425Z,0.08
2022-11-23T19:18:20.165Z,0.12
2022-11-23T19:20:50.841Z,0.13
2022-11-23T19:23:23.505Z,0.10
2022-11-23T19:26:03.447Z,0.04
2022-11-23T19:28:36.133Z,0.00
2022-11-23T19:31:14.031Z,0.03
2022-11-23T19:33:46.009Z,0.04
2022-11-23T19:36:18.758Z,0.06
2022-11-23T19:38:50.404Z,0.11
2022-11-23T19:41:26.638Z,0.12
2022-11-23T19:44:01.529Z,0.14
2022-11-23T19:46:33.029Z,0.12
2022-11-23T19:49:04.811Z,0.02
2022-11-23T19:51:35.841Z,-0.04
2022-11-23T19:54:09.770Z,-0.07
2022-11-23T19:56:40.387Z,-0.02
2022-11-23T19:59:11.428Z,0.02
2022-11-23T20:01:42.139Z,-0.03
2022-11-23T20:04:13.392Z,-0.01
2022-11-23T20:06:44.454Z,-0.03
2022-11-23T20:09:19.225Z,-0.03
2022-11-23T20:11:51.543Z,-0.09
2022-11-23T20:14:22.802Z,-0.19
2022-11-23T20:16:53.397Z,-0.21
2022-11-23T20:19:23.986Z,-0.27
2022-11-23T20:21:54.706Z,-0.32
2022-11-23T20:24:25.415Z,-0.36
2022-11-23T20:26:56.076Z,-0.37
2022-11-23T20:29:27.926Z,-0.36
2022-11-23T20:31:58.625Z,-0.29
2022-11-23T20:34:29.410Z,-0.26
2022-11-23T20:37:00.588Z,-0.33
2022-11-23T20:39:31.599Z,-0.38
2022-11-23T20:42:02.892Z,-0.42
2022-11-23T20:44:34.278Z,-0.39
2022-11-23T20:47:05.314Z,-0.43
2022-11-23T20:49:35.992Z,-0.49
2022-11-23T20:52:07.142Z,-0.53
2022-11-23T20:54:38.065Z,-0.51
2022-11-23T20:57:09.108Z,-0.51
2022-11-23T20:59:39.940Z,-0.50
2022-11-23T21:02:12.393Z,-0.45
2022-11-23T21:04:43.131Z,-0.46
2022-11-23T21:07:13.847Z,-0.49
2022-11-23T21:09:44.822Z,-0.55
2022-11-23T21:12:33.316Z,-0.60
2022-11-23T21:15:04.709Z,-0.62
2022-11-23T21:17:35.418Z,-0.60
2022-11-23T21:20:07.058Z,-0.59
2022-11-23T21:22:37.748Z,-0.55
2022-11-23T21:25:09.571Z,-0.47
2022-11-23T21:27:40.151Z,-0.42
2022-11-23T21:30:13.011Z,-0.41
2022-11-23T21:32:43.696Z,-0.43
2022-11-23T21:35:14.509Z,-0.38
2022-11-23T21:37:45.100Z,-0.35
2022-11-23T21:40:16.745Z,-0.38
2022-11-23T21:42:47.742Z,-0.44
2022-11-23T21:45:18.769Z,-0.50
2022-11-23T21:47:49.421Z,-0.54
2022-11-23T21:50:20.317Z,-0.56
2022-11-23T21:52:50.995Z,-0.56
2022-11-23T21:55:21.630Z,-0.50
2022-11-23T21:57:52.262Z,-0.53
2022-11-23T22:00:28.504Z,-0.56
2022-11-23T22:05:59.505Z,-0.53
2022-11-23T22:08:30.550Z,-0.50
2022-11-23T22:11:01.942Z,-0.45
2022-11-23T22:13:36.857Z,-0.37
2022-11-23T22:16:17.696Z,-0.37
2022-11-23T22:18:55.202Z,-0.50
2022-11-23T22:21:28.345Z,-0.47
2022-11-23T22:23:59.713Z,-0.41
2022-11-23T22:26:30.859Z,-0.40
2022-11-23T22:29:03.026Z,-0.41
2022-11-23T22:31:34.930Z,-0.39
2022-11-23T22:34:08.898Z,-0.46
2022-11-23T22:36:40.047Z,-0.52
2022-11-23T22:39:12.051Z,-0.54
2022-11-23T22:41:43.051Z,-0.54
2022-11-23T22:44:14.488Z,-0.56
2022-11-23T22:46:47.086Z,-0.59
2022-11-23T22:49:19.089Z,-0.60
2022-11-23T22:51:50.097Z,-0.62
2022-11-23T22:54:21.135Z,-0.64
2022-11-23T22:56:52.078Z,-0.62
2022-11-23T22:59:23.325Z,-0.56
2022-11-23T23:01:54.278Z,-0.60
2022-11-23T23:04:25.308Z,-0.64
2022-11-23T23:06:56.249Z,-0.65
2022-11-23T23:09:27.293Z,-0.64
2022-11-23T23:11:58.337Z,-0.62
2022-11-23T23:14:29.380Z,-0.59
2022-11-23T23:17:02.265Z,-0.56
2022-11-23T23:19:33.308Z,-0.55
2022-11-23T23:22:04.351Z,-0.56
2022-11-23T23:24:35.820Z,-0.57
2022-11-23T23:27:07.052Z,-0.55
2022-11-23T23:29:38.667Z,-0.52
2022-11-23T23:32:10.143Z,-0.50
2022-11-23T23:34:41.307Z,-0.57
2022-11-23T23:37:13.682Z,-0.63
2022-11-23T23:39:44.726Z,-0.69
2022-11-23T23:42:15.768Z,-0.63
2022-11-23T23:44:46.811Z,-0.56
2022-11-23T23:47:17.856Z,-0.52
2022-11-23T23:49:48.898Z,-0.42
2022-11-23T23:52:20.557Z,-0.31
2022-11-23T23:54:51.600Z,-0.26
2022-11-23T23:57:22.643Z,-0.25
2022-11-23T23:59:53.995Z,-0.28
